Wan Hai 508 — 9VJJ6 — position and weather

sailwx.info

Track history (hours):
 
Tides and Currents Weather Stations Pressure Air Temp Water Temp Dewpoint Dewpoint Depression Visibility Wind Speed Wind Dir Waves Ship Positions

Wan Hai 508

Last reported at 2018-Feb-17 07:29 UTC. Time now 2018-Feb-18 01:45 UTC.
Position N 01°16' E 103°24'.

Length 269 m; draft 10.5 m.

Type: Cargo ship. MMSI: 565567000.

Date/timePositionNaut miles runAvg speedWind from/ knotsBaromVisibWave heightAir tempDewpointWater temp
2018-Feb-17 07:29N 01°16' E 103°24'916.8
2018-Feb-17 06:58N 01°12' E 103°31'716.2
2018-Feb-17 06:30N 01°11' E 103°39'814.0
2018-Feb-17 05:58N 01°10' E 103°46'815.7
2018-Feb-17 05:29N 01°13' E 103°53'816.3
2018-Feb-17 04:59N 01°15' E 104°01'  
2018-Feb-12 11:32N 23°17' E 117°32'119.6
2018-Feb-12 11:30N 23°17' E 117°33'1019.7
2018-Feb-12 11:01N 23°23' E 117°41'1019.7
2018-Feb-12 10:30N 23°29' E 117°50'1019.8
2018-Feb-12 10:00N 23°36' E 117°57'1019.8
2018-Feb-12 09:31N 23°42' E 118°06'1020.0
2018-Feb-12 09:01N 23°49' E 118°14'1020.0
2018-Feb-12 08:31N 23°56' E 118°22'1020.1
2018-Feb-12 08:00N 24°02' E 118°30'1020.3
2018-Feb-12 07:30N 24°09' E 118°39'1121.1
2018-Feb-12 06:59N 24°16' E 118°48'  
Track history (hours):
 
Tides and Currents Weather Stations Pressure Air Temp Water Temp Dewpoint Dewpoint Depression Visibility Wind Speed Wind Dir Waves Ship Positions

Wan Hai 508

Last reported at 2018-Feb-17 07:29 UTC. Time now 2018-Feb-18 01:45 UTC.
Position N 01°16' E 103°24'.

Length 269 m; draft 10.5 m.

Type: Cargo ship. MMSI: 565567000.

Date/timePositionNaut miles runAvg speedWind from/ knotsBaromVisibWave heightAir tempDewpointWater temp
2018-Feb-17 07:29N 01°16' E 103°24'916.8
2018-Feb-17 06:58N 01°12' E 103°31'716.2
2018-Feb-17 06:30N 01°11' E 103°39'814.0
2018-Feb-17 05:58N 01°10' E 103°46'815.7
2018-Feb-17 05:29N 01°13' E 103°53'816.3
2018-Feb-17 04:59N 01°15' E 104°01'  
2018-Feb-12 11:32N 23°17' E 117°32'119.6
2018-Feb-12 11:30N 23°17' E 117°33'1019.7
2018-Feb-12 11:01N 23°23' E 117°41'1019.7
2018-Feb-12 10:30N 23°29' E 117°50'1019.8
2018-Feb-12 10:00N 23°36' E 117°57'1019.8
2018-Feb-12 09:31N 23°42' E 118°06'1020.0
2018-Feb-12 09:01N 23°49' E 118°14'1020.0
2018-Feb-12 08:31N 23°56' E 118°22'1020.1
2018-Feb-12 08:00N 24°02' E 118°30'1020.3
2018-Feb-12 07:30N 24°09' E 118°39'1121.1
2018-Feb-12 06:59N 24°16' E 118°48'  

Dump ship's entire track history